sensor_id;sensor_type;location;lat;lon;timestamp;temperature;humidity
63313;DHT22;49442;45.640;13.812;2023-07-29T00:01:44;21.50;99.90
63313;DHT22;49442;45.640;13.812;2023-07-29T00:04:11;21.50;99.90
63313;DHT22;49442;45.640;13.812;2023-07-29T00:06:37;21.40;99.90
63313;DHT22;49442;45.640;13.812;2023-07-29T00:09:03;21.50;99.90
63313;DHT22;49442;45.640;13.812;2023-07-29T00:11:28;21.40;99.90
63313;DHT22;49442;45.640;13.812;2023-07-29T00:13:54;21.40;99.90
63313;DHT22;49442;45.640;13.812;2023-07-29T00:16:20;21.40;99.90
63313;DHT22;49442;45.640;13.812;2023-07-29T00:18:49;21.30;99.90
63313;DHT22;49442;45.640;13.812;2023-07-29T00:21:15;21.40;99.90
63313;DHT22;49442;45.640;13.812;2023-07-29T00:23:40;21.40;99.90
63313;DHT22;49442;45.640;13.812;2023-07-29T00:26:06;21.40;99.90
63313;DHT22;49442;45.640;13.812;2023-07-29T00:28:32;21.40;99.90
63313;DHT22;49442;45.640;13.812;2023-07-29T00:30:57;21.40;99.90
63313;DHT22;49442;45.640;13.812;2023-07-29T00:33:23;21.40;99.90
63313;DHT22;49442;45.640;13.812;2023-07-29T00:35:49;21.40;99.90
63313;DHT22;49442;45.640;13.812;2023-07-29T00:38:15;21.40;99.90
63313;DHT22;49442;45.640;13.812;2023-07-29T00:40:40;21.40;99.90
63313;DHT22;49442;45.640;13.812;2023-07-29T00:43:06;21.50;99.90
63313;DHT22;49442;45.640;13.812;2023-07-29T00:45:32;21.50;99.90
63313;DHT22;49442;45.640;13.812;2023-07-29T00:47:59;21.50;99.90
63313;DHT22;49442;45.640;13.812;2023-07-29T00:50:25;21.50;99.90
63313;DHT22;49442;45.640;13.812;2023-07-29T00:52:54;21.40;99.90
63313;DHT22;49442;45.640;13.812;2023-07-29T00:55:20;21.40;99.90
63313;DHT22;49442;45.640;13.812;2023-07-29T00:57:45;21.40;99.90
63313;DHT22;49442;45.640;13.812;2023-07-29T01:00:14;21.40;99.90
63313;DHT22;49442;45.640;13.812;2023-07-29T01:02:42;21.40;99.90
63313;DHT22;49442;45.640;13.812;2023-07-29T01:05:08;21.50;99.90
63313;DHT22;49442;45.640;13.812;2023-07-29T01:07:58;21.50;99.90
63313;DHT22;49442;45.640;13.812;2023-07-29T01:13:13;21.40;99.90
63313;DHT22;49442;45.640;13.812;2023-07-29T01:15:55;21.40;99.90
63313;DHT22;49442;45.640;13.812;2023-07-29T01:18:23;21.40;99.90
63313;DHT22;49442;45.640;13.812;2023-07-29T01:20:53;21.40;99.90
63313;DHT22;49442;45.640;13.812;2023-07-29T01:23:36;21.30;99.90
63313;DHT22;49442;45.640;13.812;2023-07-29T01:26:02;21.40;99.90
63313;DHT22;49442;45.640;13.812;2023-07-29T01:28:29;21.40;99.90
63313;DHT22;49442;45.640;13.812;2023-07-29T01:31:18;21.40;99.90
63313;DHT22;49442;45.640;13.812;2023-07-29T01:34:21;21.40;99.90
63313;DHT22;49442;45.640;13.812;2023-07-29T01:36:51;21.40;99.90
63313;DHT22;49442;45.640;13.812;2023-07-29T01:39:18;21.40;99.90
63313;DHT22;49442;45.640;13.812;2023-07-29T01:41:48;21.30;99.90
63313;DHT22;49442;45.640;13.812;2023-07-29T01:44:14;21.20;99.90
63313;DHT22;49442;45.640;13.812;2023-07-29T01:46:40;21.30;99.90
63313;DHT22;49442;45.640;13.812;2023-07-29T01:49:06;21.30;99.90
63313;DHT22;49442;45.640;13.812;2023-07-29T01:51:32;21.20;99.90
63313;DHT22;49442;45.640;13.812;2023-07-29T01:53:57;21.30;99.90
63313;DHT22;49442;45.640;13.812;2023-07-29T01:56:25;21.30;99.90
63313;DHT22;49442;45.640;13.812;2023-07-29T01:58:50;21.40;99.90
63313;DHT22;49442;45.640;13.812;2023-07-29T02:01:16;21.40;99.90
63313;DHT22;49442;45.640;13.812;2023-07-29T02:03:42;21.40;99.90
63313;DHT22;49442;45.640;13.812;2023-07-29T02:06:07;21.50;99.90
63313;DHT22;49442;45.640;13.812;2023-07-29T02:08:33;21.50;99.90
63313;DHT22;49442;45.640;13.812;2023-07-29T02:10:59;21.50;99.90
63313;DHT22;49442;45.640;13.812;2023-07-29T02:13:24;21.60;99.90
63313;DHT22;49442;45.640;13.812;2023-07-29T02:15:50;21.50;99.90
63313;DHT22;49442;45.640;13.812;2023-07-29T02:18:15;21.50;99.90
63313;DHT22;49442;45.640;13.812;2023-07-29T02:20:41;21.40;99.90
63313;DHT22;49442;45.640;13.812;2023-07-29T02:23:14;21.40;99.90
63313;DHT22;49442;45.640;13.812;2023-07-29T02:25:40;21.40;99.90
63313;DHT22;49442;45.640;13.812;2023-07-29T02:28:06;21.40;99.90
63313;DHT22;49442;45.640;13.812;2023-07-29T02:30:32;21.50;99.90
63313;DHT22;49442;45.640;13.812;2023-07-29T02:32:57;21.50;99.90
63313;DHT22;49442;45.640;13.812;2023-07-29T02:35:23;21.50;99.90
63313;DHT22;49442;45.640;13.812;2023-07-29T02:37:49;21.50;99.90
63313;DHT22;49442;45.640;13.812;2023-07-29T02:40:14;21.50;99.90
63313;DHT22;49442;45.640;13.812;2023-07-29T02:42:40;21.50;99.90
63313;DHT22;49442;45.640;13.812;2023-07-29T02:45:07;21.50;99.90
63313;DHT22;49442;45.640;13.812;2023-07-29T02:47:36;21.40;99.90
63313;DHT22;49442;45.640;13.812;2023-07-29T02:50:01;21.50;99.90
63313;DHT22;49442;45.640;13.812;2023-07-29T02:52:27;21.40;99.90
63313;DHT22;49442;45.640;13.812;2023-07-29T02:54:53;21.40;99.90
63313;DHT22;49442;45.640;13.812;2023-07-29T02:57:18;21.40;99.90
63313;DHT22;49442;45.640;13.812;2023-07-29T02:59:44;21.40;99.90
63313;DHT22;49442;45.640;13.812;2023-07-29T03:02:11;21.40;99.90
63313;DHT22;49442;45.640;13.812;2023-07-29T03:04:36;21.40;99.90
63313;DHT22;49442;45.640;13.812;2023-07-29T03:07:03;21.40;99.90
63313;DHT22;49442;45.640;13.812;2023-07-29T03:09:29;21.40;99.90
63313;DHT22;49442;45.640;13.812;2023-07-29T03:11:54;21.50;99.90
63313;DHT22;49442;45.640;13.812;2023-07-29T03:14:21;21.50;99.90
63313;DHT22;49442;45.640;13.812;2023-07-29T03:16:46;21.40;99.90
63313;DHT22;49442;45.640;13.812;2023-07-29T03:19:12;21.40;99.90
63313;DHT22;49442;45.640;13.812;2023-07-29T03:21:38;21.40;99.90
63313;DHT22;49442;45.640;13.812;2023-07-29T03:24:04;21.40;99.90
63313;DHT22;49442;45.640;13.812;2023-07-29T03:26:29;21.50;99.90
63313;DHT22;49442;45.640;13.812;2023-07-29T03:28:55;21.50;99.90
63313;DHT22;49442;45.640;13.812;2023-07-29T03:31:21;21.50;99.90
63313;DHT22;49442;45.640;13.812;2023-07-29T03:33:46;21.40;99.90
63313;DHT22;49442;45.640;13.812;2023-07-29T03:36:12;21.50;99.90
63313;DHT22;49442;45.640;13.812;2023-07-29T03:38:37;21.50;99.90
63313;DHT22;49442;45.640;13.812;2023-07-29T03:41:09;21.50;99.90
63313;DHT22;49442;45.640;13.812;2023-07-29T03:43:35;21.50;99.90
63313;DHT22;49442;45.640;13.812;2023-07-29T03:46:01;21.50;99.90
63313;DHT22;49442;45.640;13.812;2023-07-29T03:48:27;21.40;99.90
63313;DHT22;49442;45.640;13.812;2023-07-29T03:50:52;21.30;99.90
63313;DHT22;49442;45.640;13.812;2023-07-29T03:53:18;21.40;99.90
63313;DHT22;49442;45.640;13.812;2023-07-29T03:55:44;21.30;99.90
63313;DHT22;49442;45.640;13.812;2023-07-29T03:58:09;21.40;99.90
63313;DHT22;49442;45.640;13.812;2023-07-29T04:00:35;21.40;99.90
63313;DHT22;49442;45.640;13.812;2023-07-29T04:03:01;21.40;99.90
63313;DHT22;49442;45.640;13.812;2023-07-29T04:05:29;21.40;99.90
63313;DHT22;49442;45.640;13.812;2023-07-29T04:07:55;21.40;99.90
63313;DHT22;49442;45.640;13.812;2023-07-29T04:10:20;21.40;99.90
63313;DHT22;49442;45.640;13.812;2023-07-29T04:12:46;21.50;99.90
63313;DHT22;49442;45.640;13.812;2023-07-29T04:15:12;21.50;99.90
63313;DHT22;49442;45.640;13.812;2023-07-29T04:17:37;21.40;99.90
63313;DHT22;49442;45.640;13.812;2023-07-29T04:20:03;21.50;99.90
63313;DHT22;49442;45.640;13.812;2023-07-29T04:22:29;21.60;99.90
63313;DHT22;49442;45.640;13.812;2023-07-29T04:24:55;21.60;99.90
63313;DHT22;49442;45.640;13.812;2023-07-29T04:27:21;21.60;99.90
63313;DHT22;49442;45.640;13.812;2023-07-29T04:29:46;21.70;99.90
63313;DHT22;49442;45.640;13.812;2023-07-29T04:32:15;21.70;99.90
63313;DHT22;49442;45.640;13.812;2023-07-29T04:34:41;21.80;99.90
63313;DHT22;49442;45.640;13.812;2023-07-29T04:37:06;21.70;99.90
63313;DHT22;49442;45.640;13.812;2023-07-29T04:39:32;21.80;99.90
63313;DHT22;49442;45.640;13.812;2023-07-29T04:41:58;21.80;99.90
63313;DHT22;49442;45.640;13.812;2023-07-29T04:44:24;21.80;99.90
63313;DHT22;49442;45.640;13.812;2023-07-29T04:46:50;21.80;99.90
63313;DHT22;49442;45.640;13.812;2023-07-29T04:49:15;21.80;99.90
63313;DHT22;49442;45.640;13.812;2023-07-29T04:51:41;21.80;99.90
63313;DHT22;49442;45.640;13.812;2023-07-29T04:54:07;21.80;99.90
63313;DHT22;49442;45.640;13.812;2023-07-29T04:56:32;21.80;99.90
63313;DHT22;49442;45.640;13.812;2023-07-29T04:58:58;21.80;99.90
63313;DHT22;49442;45.640;13.812;2023-07-29T05:01:24;21.80;99.90
63313;DHT22;49442;45.640;13.812;2023-07-29T05:03:50;21.90;99.90
63313;DHT22;49442;45.640;13.812;2023-07-29T05:06:16;21.90;99.90
63313;DHT22;49442;45.640;13.812;2023-07-29T05:08:41;22.00;99.90
63313;DHT22;49442;45.640;13.812;2023-07-29T05:11:07;22.10;99.90
63313;DHT22;49442;45.640;13.812;2023-07-29T05:13:33;22.10;99.90
63313;DHT22;49442;45.640;13.812;2023-07-29T05:15:58;22.10;99.90
63313;DHT22;49442;45.640;13.812;2023-07-29T05:18:24;22.10;99.90
63313;DHT22;49442;45.640;13.812;2023-07-29T05:20:50;22.10;99.90
63313;DHT22;49442;45.640;13.812;2023-07-29T05:23:15;22.10;99.90
63313;DHT22;49442;45.640;13.812;2023-07-29T05:25:41;22.10;99.90
63313;DHT22;49442;45.640;13.812;2023-07-29T05:28:07;22.20;99.90
63313;DHT22;49442;45.640;13.812;2023-07-29T05:30:33;22.20;99.90
63313;DHT22;49442;45.640;13.812;2023-07-29T05:33:03;22.20;99.90
63313;DHT22;49442;45.640;13.812;2023-07-29T05:35:29;22.20;99.90
63313;DHT22;49442;45.640;13.812;2023-07-29T05:37:55;22.20;99.90
63313;DHT22;49442;45.640;13.812;2023-07-29T05:40:21;22.10;99.90
63313;DHT22;49442;45.640;13.812;2023-07-29T05:42:46;22.10;99.90
63313;DHT22;49442;45.640;13.812;2023-07-29T05:45:13;22.10;99.90
63313;DHT22;49442;45.640;13.812;2023-07-29T05:47:39;22.10;99.90
63313;DHT22;49442;45.640;13.812;2023-07-29T05:50:05;22.10;99.90
63313;DHT22;49442;45.640;13.812;2023-07-29T05:52:31;22.10;99.90
63313;DHT22;49442;45.640;13.812;2023-07-29T05:54:57;22.20;99.90
63313;DHT22;49442;45.640;13.812;2023-07-29T05:57:23;22.20;99.90
63313;DHT22;49442;45.640;13.812;2023-07-29T05:59:48;22.20;99.90
63313;DHT22;49442;45.640;13.812;2023-07-29T06:02:14;22.20;99.90
63313;DHT22;49442;45.640;13.812;2023-07-29T06:04:40;22.30;99.90
63313;DHT22;49442;45.640;13.812;2023-07-29T06:07:06;22.40;99.90
63313;DHT22;49442;45.640;13.812;2023-07-29T06:09:31;22.50;99.90
63313;DHT22;49442;45.640;13.812;2023-07-29T06:11:57;22.50;99.90
63313;DHT22;49442;45.640;13.812;2023-07-29T06:14:23;22.50;99.90
63313;DHT22;49442;45.640;13.812;2023-07-29T06:16:48;22.50;99.90
63313;DHT22;49442;45.640;13.812;2023-07-29T06:19:14;22.50;99.90
63313;DHT22;49442;45.640;13.812;2023-07-29T06:21:40;22.60;99.90
63313;DHT22;49442;45.640;13.812;2023-07-29T06:24:05;22.60;99.90
63313;DHT22;49442;45.640;13.812;2023-07-29T06:26:31;22.60;99.90
63313;DHT22;49442;45.640;13.812;2023-07-29T06:28:57;22.70;99.90
63313;DHT22;49442;45.640;13.812;2023-07-29T06:31:22;22.70;99.90
63313;DHT22;49442;45.640;13.812;2023-07-29T06:33:48;22.70;99.90
63313;DHT22;49442;45.640;13.812;2023-07-29T06:36:14;22.70;99.90
63313;DHT22;49442;45.640;13.812;2023-07-29T06:38:39;22.80;99.90
63313;DHT22;49442;45.640;13.812;2023-07-29T06:41:06;22.80;99.90
63313;DHT22;49442;45.640;13.812;2023-07-29T06:43:32;22.90;99.90
63313;DHT22;49442;45.640;13.812;2023-07-29T06:45:58;23.00;99.90
63313;DHT22;49442;45.640;13.812;2023-07-29T06:48:23;23.00;99.90
63313;DHT22;49442;45.640;13.812;2023-07-29T06:50:49;23.00;99.90
63313;DHT22;49442;45.640;13.812;2023-07-29T06:53:16;23.10;99.90
63313;DHT22;49442;45.640;13.812;2023-07-29T06:55:42;23.10;99.90
63313;DHT22;49442;45.640;13.812;2023-07-29T06:58:08;23.20;99.90
63313;DHT22;49442;45.640;13.812;2023-07-29T07:00:35;23.20;99.90
63313;DHT22;49442;45.640;13.812;2023-07-29T07:03:01;23.20;99.90
63313;DHT22;49442;45.640;13.812;2023-07-29T07:05:26;23.30;99.90
63313;DHT22;49442;45.640;13.812;2023-07-29T07:07:52;23.40;99.90
63313;DHT22;49442;45.640;13.812;2023-07-29T07:10:18;23.50;99.90
63313;DHT22;49442;45.640;13.812;2023-07-29T07:12:44;23.60;99.90
63313;DHT22;49442;45.640;13.812;2023-07-29T07:15:10;23.60;99.90
63313;DHT22;49442;45.640;13.812;2023-07-29T07:17:36;23.70;99.90
63313;DHT22;49442;45.640;13.812;2023-07-29T07:20:02;23.80;99.90
63313;DHT22;49442;45.640;13.812;2023-07-29T07:22:27;23.90;99.90
63313;DHT22;49442;45.640;13.812;2023-07-29T07:24:53;24.00;99.90
63313;DHT22;49442;45.640;13.812;2023-07-29T07:27:19;24.00;99.90
63313;DHT22;49442;45.640;13.812;2023-07-29T07:29:44;24.00;99.90
63313;DHT22;49442;45.640;13.812;2023-07-29T07:32:10;24.10;99.90
63313;DHT22;49442;45.640;13.812;2023-07-29T07:34:35;24.20;99.90
63313;DHT22;49442;45.640;13.812;2023-07-29T07:37:01;24.20;99.90
63313;DHT22;49442;45.640;13.812;2023-07-29T07:39:29;24.30;99.90
63313;DHT22;49442;45.640;13.812;2023-07-29T07:41:54;24.30;99.90
63313;DHT22;49442;45.640;13.812;2023-07-29T07:44:20;24.20;99.90
63313;DHT22;49442;45.640;13.812;2023-07-29T07:46:46;24.20;99.90
63313;DHT22;49442;45.640;13.812;2023-07-29T07:49:12;24.30;99.90
63313;DHT22;49442;45.640;13.812;2023-07-29T07:51:38;24.40;99.90
63313;DHT22;49442;45.640;13.812;2023-07-29T07:54:04;24.50;99.90
63313;DHT22;49442;45.640;13.812;2023-07-29T07:56:30;24.60;99.90
63313;DHT22;49442;45.640;13.812;2023-07-29T07:58:56;24.80;99.90
63313;DHT22;49442;45.640;13.812;2023-07-29T08:01:21;24.90;99.90
63313;DHT22;49442;45.640;13.812;2023-07-29T08:03:47;25.00;99.90
63313;DHT22;49442;45.640;13.812;2023-07-29T08:06:13;25.10;99.90
63313;DHT22;49442;45.640;13.812;2023-07-29T08:08:39;25.20;99.90
63313;DHT22;49442;45.640;13.812;2023-07-29T08:11:04;25.20;99.90
63313;DHT22;49442;45.640;13.812;2023-07-29T08:13:30;25.40;99.90
63313;DHT22;49442;45.640;13.812;2023-07-29T08:15:56;25.40;99.90
63313;DHT22;49442;45.640;13.812;2023-07-29T08:18:21;25.40;99.90
63313;DHT22;49442;45.640;13.812;2023-07-29T08:20:54;25.40;99.90
63313;DHT22;49442;45.640;13.812;2023-07-29T08:23:21;25.50;99.90
63313;DHT22;49442;45.640;13.812;2023-07-29T08:25:58;25.60;99.90
63313;DHT22;49442;45.640;13.812;2023-07-29T08:28:38;25.70;99.90
63313;DHT22;49442;45.640;13.812;2023-07-29T08:31:04;25.50;99.90
63313;DHT22;49442;45.640;13.812;2023-07-29T08:33:33;25.50;99.90
63313;DHT22;49442;45.640;13.812;2023-07-29T08:36:00;25.70;99.90
63313;DHT22;49442;45.640;13.812;2023-07-29T08:38:26;25.80;99.90
63313;DHT22;49442;45.640;13.812;2023-07-29T08:41:13;25.90;99.90
63313;DHT22;49442;45.640;13.812;2023-07-29T08:43:55;26.00;99.90
63313;DHT22;49442;45.640;13.812;2023-07-29T08:46:21;25.90;99.90
63313;DHT22;49442;45.640;13.812;2023-07-29T08:48:47;25.80;99.90
63313;DHT22;49442;45.640;13.812;2023-07-29T08:51:14;25.80;99.90
63313;DHT22;49442;45.640;13.812;2023-07-29T08:53:41;26.00;99.90
63313;DHT22;49442;45.640;13.812;2023-07-29T08:56:07;26.10;99.90
63313;DHT22;49442;45.640;13.812;2023-07-29T08:58:33;26.30;99.90
63313;DHT22;49442;45.640;13.812;2023-07-29T09:01:00;26.50;99.90
63313;DHT22;49442;45.640;13.812;2023-07-29T09:03:26;26.50;99.90
63313;DHT22;49442;45.640;13.812;2023-07-29T09:05:53;26.50;99.90
63313;DHT22;49442;45.640;13.812;2023-07-29T09:08:20;26.40;99.90
63313;DHT22;49442;45.640;13.812;2023-07-29T09:10:46;26.30;99.90
63313;DHT22;49442;45.640;13.812;2023-07-29T09:13:12;26.30;99.90
63313;DHT22;49442;45.640;13.812;2023-07-29T09:15:38;26.30;99.90
63313;DHT22;49442;45.640;13.812;2023-07-29T09:18:19;26.50;99.90
63313;DHT22;49442;45.640;13.812;2023-07-29T09:20:49;26.50;99.90
63313;DHT22;49442;45.640;13.812;2023-07-29T09:23:15;26.60;99.90
63313;DHT22;49442;45.640;13.812;2023-07-29T09:25:42;26.70;99.90
63313;DHT22;49442;45.640;13.812;2023-07-29T09:28:12;26.90;99.90
63313;DHT22;49442;45.640;13.812;2023-07-29T09:30:42;26.90;99.90
63313;DHT22;49442;45.640;13.812;2023-07-29T09:33:08;26.90;99.90
63313;DHT22;49442;45.640;13.812;2023-07-29T09:35:36;27.00;99.90
63313;DHT22;49442;45.640;13.812;2023-07-29T09:38:04;27.00;99.90
63313;DHT22;49442;45.640;13.812;2023-07-29T09:40:37;27.10;99.90
63313;DHT22;49442;45.640;13.812;2023-07-29T09:43:04;27.10;99.90
63313;DHT22;49442;45.640;13.812;2023-07-29T09:45:31;27.10;99.90
63313;DHT22;49442;45.640;13.812;2023-07-29T09:48:01;27.10;99.90
63313;DHT22;49442;45.640;13.812;2023-07-29T09:50:28;27.00;99.90
63313;DHT22;49442;45.640;13.812;2023-07-29T09:52:55;27.10;99.90
63313;DHT22;49442;45.640;13.812;2023-07-29T09:55:24;27.10;99.90
63313;DHT22;49442;45.640;13.812;2023-07-29T09:57:57;27.10;99.90
63313;DHT22;49442;45.640;13.812;2023-07-29T10:00:25;27.20;99.90
63313;DHT22;49442;45.640;13.812;2023-07-29T10:02:52;27.30;99.10
63313;DHT22;49442;45.640;13.812;2023-07-29T10:05:18;27.40;99.40
63313;DHT22;49442;45.640;13.812;2023-07-29T10:07:44;27.50;98.20
63313;DHT22;49442;45.640;13.812;2023-07-29T10:10:12;27.50;97.60
63313;DHT22;49442;45.640;13.812;2023-07-29T10:12:42;27.50;96.50
63313;DHT22;49442;45.640;13.812;2023-07-29T10:15:09;27.60;98.00
63313;DHT22;49442;45.640;13.812;2023-07-29T10:17:37;27.60;99.00
63313;DHT22;49442;45.640;13.812;2023-07-29T10:20:08;27.60;97.10
63313;DHT22;49442;45.640;13.812;2023-07-29T10:28:04;27.30;99.70
63313;DHT22;49442;45.640;13.812;2023-07-29T10:30:30;27.30;99.90
63313;DHT22;49442;45.640;13.812;2023-07-29T10:32:58;27.30;98.60
63313;DHT22;49442;45.640;13.812;2023-07-29T10:35:26;27.30;98.10
63313;DHT22;49442;45.640;13.812;2023-07-29T10:37:53;27.40;99.90
63313;DHT22;49442;45.640;13.812;2023-07-29T10:40:19;27.50;99.70
63313;DHT22;49442;45.640;13.812;2023-07-29T10:43:02;27.50;99.90
63313;DHT22;49442;45.640;13.812;2023-07-29T10:45:37;27.20;99.90
63313;DHT22;49442;45.640;13.812;2023-07-29T10:48:13;27.30;99.90
63313;DHT22;49442;45.640;13.812;2023-07-29T10:51:30;27.50;99.90
63313;DHT22;49442;45.640;13.812;2023-07-29T10:54:09;27.60;99.90
63313;DHT22;49442;45.640;13.812;2023-07-29T10:56:37;27.70;99.50
63313;DHT22;49442;45.640;13.812;2023-07-29T11:01:41;27.60;99.90
63313;DHT22;49442;45.640;13.812;2023-07-29T11:10:01;28.00;99.90
63313;DHT22;49442;45.640;13.812;2023-07-29T11:12:49;28.00;99.90
63313;DHT22;49442;45.640;13.812;2023-07-29T11:15:28;28.00;99.90
63313;DHT22;49442;45.640;13.812;2023-07-29T11:17:58;27.90;99.90
63313;DHT22;49442;45.640;13.812;2023-07-29T11:20:29;27.80;99.90
63313;DHT22;49442;45.640;13.812;2023-07-29T11:22:56;27.90;99.90
63313;DHT22;49442;45.640;13.812;2023-07-29T11:25:23;28.00;99.90
63313;DHT22;49442;45.640;13.812;2023-07-29T11:27:52;28.10;99.90
63313;DHT22;49442;45.640;13.812;2023-07-29T11:30:18;28.20;98.50
63313;DHT22;49442;45.640;13.812;2023-07-29T11:32:45;28.20;98.90
63313;DHT22;49442;45.640;13.812;2023-07-29T11:35:15;28.20;99.70
63313;DHT22;49442;45.640;13.812;2023-07-29T11:37:48;28.20;99.20
63313;DHT22;49442;45.640;13.812;2023-07-29T11:40:18;27.90;97.80
63313;DHT22;49442;45.640;13.812;2023-07-29T11:42:45;27.90;98.10
63313;DHT22;49442;45.640;13.812;2023-07-29T11:45:12;28.00;99.90
63313;DHT22;49442;45.640;13.812;2023-07-29T11:47:38;28.10;99.20
63313;DHT22;49442;45.640;13.812;2023-07-29T11:50:09;28.10;97.80
63313;DHT22;49442;45.640;13.812;2023-07-29T11:52:36;28.10;99.30
63313;DHT22;49442;45.640;13.812;2023-07-29T11:55:03;28.20;98.60
63313;DHT22;49442;45.640;13.812;2023-07-29T11:57:36;28.20;96.40
63313;DHT22;49442;45.640;13.812;2023-07-29T12:00:06;28.30;96.30
63313;DHT22;49442;45.640;13.812;2023-07-29T12:02:34;28.20;98.30
63313;DHT22;49442;45.640;13.812;2023-07-29T12:05:02;28.00;95.90
63313;DHT22;49442;45.640;13.812;2023-07-29T12:07:28;27.90;95.60
63313;DHT22;49442;45.640;13.812;2023-07-29T12:09:54;27.90;98.30
63313;DHT22;49442;45.640;13.812;2023-07-29T12:12:22;27.90;96.80
63313;DHT22;49442;45.640;13.812;2023-07-29T12:14:48;27.80;98.20
63313;DHT22;49442;45.640;13.812;2023-07-29T12:17:14;27.80;97.00
63313;DHT22;49442;45.640;13.812;2023-07-29T12:19:41;27.80;97.10
63313;DHT22;49442;45.640;13.812;2023-07-29T12:22:08;27.80;99.50
63313;DHT22;49442;45.640;13.812;2023-07-29T12:24:39;28.00;97.20
63313;DHT22;49442;45.640;13.812;2023-07-29T12:27:09;28.10;97.90
63313;DHT22;49442;45.640;13.812;2023-07-29T12:29:40;28.20;98.70
63313;DHT22;49442;45.640;13.812;2023-07-29T12:32:06;28.30;99.20
63313;DHT22;49442;45.640;13.812;2023-07-29T12:34:32;28.20;98.10
63313;DHT22;49442;45.640;13.812;2023-07-29T12:36:58;28.20;98.70
63313;DHT22;49442;45.640;13.812;2023-07-29T12:39:27;28.20;98.60
63313;DHT22;49442;45.640;13.812;2023-07-29T12:41:54;28.30;98.90
63313;DHT22;49442;45.640;13.812;2023-07-29T12:44:23;28.30;99.60
63313;DHT22;49442;45.640;13.812;2023-07-29T12:46:49;28.40;99.50
63313;DHT22;49442;45.640;13.812;2023-07-29T12:49:15;28.50;98.90
63313;DHT22;49442;45.640;13.812;2023-07-29T12:51:41;28.50;99.30
63313;DHT22;49442;45.640;13.812;2023-07-29T12:54:07;28.60;99.30
63313;DHT22;49442;45.640;13.812;2023-07-29T12:56:36;28.60;99.30
63313;DHT22;49442;45.640;13.812;2023-07-29T12:59:02;28.60;99.10
63313;DHT22;49442;45.640;13.812;2023-07-29T13:01:32;28.20;97.30
63313;DHT22;49442;45.640;13.812;2023-07-29T13:03:58;28.10;98.00
63313;DHT22;49442;45.640;13.812;2023-07-29T13:06:24;28.00;98.20
63313;DHT22;49442;45.640;13.812;2023-07-29T13:08:49;27.80;98.80
63313;DHT22;49442;45.640;13.812;2023-07-29T13:11:15;28.00;99.90
63313;DHT22;49442;45.640;13.812;2023-07-29T13:13:41;28.20;99.90
63313;DHT22;49442;45.640;13.812;2023-07-29T13:16:07;28.20;98.60
63313;DHT22;49442;45.640;13.812;2023-07-29T13:18:33;28.30;99.20
63313;DHT22;49442;45.640;13.812;2023-07-29T13:20:59;28.40;99.90
63313;DHT22;49442;45.640;13.812;2023-07-29T13:23:26;28.30;98.90
63313;DHT22;49442;45.640;13.812;2023-07-29T13:25:52;28.30;98.30
63313;DHT22;49442;45.640;13.812;2023-07-29T13:28:21;28.40;98.80
63313;DHT22;49442;45.640;13.812;2023-07-29T13:30:47;28.10;97.60
